createdAt,value
2023-02-05T00:01:27.784Z,55.76
2023-02-05T00:03:54.865Z,55.82
2023-02-05T00:06:21.799Z,55.56
2023-02-05T00:08:48.872Z,55.57
2023-02-05T00:11:15.950Z,55.68
2023-02-05T00:13:43.774Z,55.59
2023-02-05T00:16:13.425Z,55.48
2023-02-05T00:18:40.772Z,55.54
2023-02-05T00:21:08.131Z,55.65
2023-02-05T00:23:35.222Z,55.63
2023-02-05T00:26:03.272Z,55.58
2023-02-05T00:28:33.176Z,55.54
2023-02-05T00:31:00.647Z,55.51
2023-02-05T00:33:27.470Z,55.63
2023-02-05T00:35:54.121Z,55.60
2023-02-05T00:38:20.688Z,55.38
2023-02-05T00:40:47.329Z,55.50
2023-02-05T00:43:13.956Z,55.46
2023-02-05T00:45:40.506Z,55.40
2023-02-05T00:48:07.309Z,55.43
2023-02-05T00:50:35.044Z,55.56
2023-02-05T00:53:02.715Z,55.45
2023-02-05T00:55:29.285Z,55.52
2023-02-05T00:57:56.393Z,55.39
2023-02-05T01:00:23.500Z,55.39
2023-02-05T01:02:50.616Z,55.60
2023-02-05T01:05:17.282Z,55.56
2023-02-05T01:07:44.832Z,55.49
2023-02-05T01:10:11.660Z,55.39
2023-02-05T01:12:38.469Z,55.39
2023-02-05T01:15:07.349Z,55.51
2023-02-05T01:17:34.351Z,55.53
2023-02-05T01:20:00.900Z,55.49
2023-02-05T01:22:28.033Z,55.44
2023-02-05T01:24:55.183Z,55.35
2023-02-05T01:27:22.273Z,55.49
2023-02-05T01:29:48.800Z,55.55
2023-02-05T01:32:15.422Z,55.42
2023-02-05T01:34:41.990Z,55.44
2023-02-05T01:37:09.224Z,55.39
2023-02-05T01:39:37.443Z,55.56
2023-02-05T01:42:05.007Z,55.57
2023-02-05T01:44:33.026Z,55.43
2023-02-05T01:46:59.645Z,55.17
2023-02-05T01:49:44.385Z,55.32
2023-02-05T01:52:16.435Z,55.22
2023-02-05T01:54:46.788Z,55.40
2023-02-05T01:57:20.065Z,55.52
2023-02-05T01:59:47.431Z,55.24
2023-02-05T02:02:14.657Z,55.26
2023-02-05T02:04:45.428Z,55.24
2023-02-05T02:07:16.845Z,55.16
2023-02-05T02:09:45.880Z,55.17
2023-02-05T02:12:16.461Z,55.22
2023-02-05T02:14:48.504Z,55.12
2023-02-05T02:17:18.360Z,54.99
2023-02-05T02:19:55.849Z,55.08
2023-02-05T02:22:41.368Z,54.99
2023-02-05T02:25:45.404Z,54.69
2023-02-05T02:28:35.900Z,54.75
2023-02-05T02:31:32.412Z,54.81
2023-02-05T02:34:05.517Z,54.75
2023-02-05T02:36:43.290Z,54.85
2023-02-05T02:39:12.863Z,54.91
2023-02-05T02:41:56.287Z,54.77
2023-02-05T02:44:34.081Z,54.77
2023-02-05T02:47:07.219Z,54.76
2023-02-05T02:49:42.649Z,54.64
2023-02-05T02:52:13.700Z,54.60
2023-02-05T02:54:44.172Z,54.53
2023-02-05T02:57:12.922Z,54.57
2023-02-05T02:59:42.016Z,54.64
2023-02-05T03:02:11.629Z,54.45
2023-02-05T03:04:41.392Z,54.13
2023-02-05T03:07:23.928Z,54.22
2023-02-05T03:10:21.861Z,54.10
2023-02-05T03:12:48.521Z,54.29
2023-02-05T03:15:15.978Z,54.27
2023-02-05T03:17:43.822Z,54.15
2023-02-05T03:20:32.251Z,54.04
2023-02-05T03:22:58.898Z,54.12
2023-02-05T03:25:29.269Z,54.05
2023-02-05T03:27:57.506Z,53.89
2023-02-05T03:30:31.659Z,53.86
2023-02-05T03:33:16.232Z,53.61
2023-02-05T03:36:00.073Z,53.63
2023-02-05T03:38:55.828Z,53.48
2023-02-05T03:41:51.541Z,53.84
2023-02-05T03:44:50.140Z,53.44
2023-02-05T03:47:54.876Z,53.37
2023-02-05T03:50:30.132Z,53.52
2023-02-05T03:53:20.583Z,53.54
2023-02-05T03:55:55.679Z,53.62
2023-02-05T03:58:31.985Z,53.62
2023-02-05T04:00:59.463Z,53.71
2023-02-05T04:03:26.312Z,53.75
2023-02-05T04:05:53.452Z,53.77
2023-02-05T04:08:20.976Z,53.85
2023-02-05T04:10:48.052Z,53.76
2023-02-05T04:13:14.628Z,53.79
2023-02-05T04:15:41.244Z,53.80
2023-02-05T04:18:08.333Z,53.84
2023-02-05T04:20:34.880Z,53.89
2023-02-05T04:23:01.419Z,53.98
2023-02-05T04:25:28.487Z,54.03
2023-02-05T04:27:55.107Z,54.09
2023-02-05T04:30:21.746Z,54.15
2023-02-05T04:32:48.366Z,54.13
2023-02-05T04:35:15.532Z,54.23
2023-02-05T04:37:42.574Z,54.21
2023-02-05T04:40:10.452Z,54.29
2023-02-05T04:42:37.535Z,54.27
2023-02-05T04:45:05.936Z,54.17
2023-02-05T04:47:33.655Z,54.18
2023-02-05T04:50:00.692Z,54.18
2023-02-05T04:52:27.250Z,54.35
2023-02-05T04:54:54.297Z,54.31
2023-02-05T04:57:21.629Z,54.56
2023-02-05T04:59:48.316Z,54.47
2023-02-05T05:02:15.439Z,54.36
2023-02-05T05:04:43.320Z,54.30
2023-02-05T05:07:10.364Z,54.34
2023-02-05T05:09:38.187Z,54.47
2023-02-05T05:12:06.383Z,54.26
2023-02-05T05:14:32.919Z,54.30
2023-02-05T05:16:59.517Z,54.28
2023-02-05T05:19:26.090Z,54.15
2023-02-05T05:21:52.679Z,53.94
2023-02-05T05:24:19.289Z,53.91
2023-02-05T05:26:46.589Z,53.69
2023-02-05T05:29:14.589Z,53.43
2023-02-05T05:31:42.678Z,53.26
2023-02-05T05:34:09.268Z,53.32
2023-02-05T05:36:36.370Z,53.13
2023-02-05T05:39:21.763Z,53.21
2023-02-05T05:42:07.039Z,53.16
2023-02-05T05:44:34.094Z,52.90
2023-02-05T05:47:01.208Z,52.83
2023-02-05T05:49:28.228Z,52.78
2023-02-05T05:51:55.262Z,52.64
2023-02-05T05:54:22.357Z,52.66
2023-02-05T05:56:49.669Z,52.49
2023-02-05T05:59:16.311Z,52.75
2023-02-05T06:01:43.380Z,52.25
2023-02-05T06:04:09.944Z,52.21
2023-02-05T06:06:37.066Z,52.20
2023-02-05T06:09:04.269Z,52.11
2023-02-05T06:11:30.814Z,52.12
2023-02-05T06:13:57.334Z,52.12
2023-02-05T06:16:24.018Z,52.19
2023-02-05T06:18:51.012Z,51.92
2023-02-05T06:21:18.028Z,52.20
2023-02-05T06:23:45.097Z,52.18
2023-02-05T06:26:12.204Z,52.17
2023-02-05T06:28:38.821Z,52.50
2023-02-05T06:31:07.128Z,52.92
2023-02-05T06:33:33.771Z,53.14
2023-02-05T06:36:00.800Z,53.25
2023-02-05T06:38:27.867Z,53.32
2023-02-05T06:40:54.898Z,53.58
2023-02-05T06:43:21.949Z,53.37
2023-02-05T06:45:48.547Z,53.50
2023-02-05T06:48:15.226Z,53.45
2023-02-05T06:50:41.784Z,53.52
2023-02-05T06:53:10.538Z,53.46
2023-02-05T06:55:39.583Z,53.16
2023-02-05T06:58:07.756Z,53.46
2023-02-05T07:00:35.076Z,53.51
2023-02-05T07:03:02.300Z,53.75
2023-02-05T07:05:28.964Z,53.90
2023-02-05T07:07:55.717Z,53.89
2023-02-05T07:10:22.861Z,53.94
2023-02-05T07:12:49.898Z,53.87
2023-02-05T07:15:16.551Z,53.74
2023-02-05T07:17:43.177Z,53.95
2023-02-05T07:20:10.449Z,53.70
2023-02-05T07:22:37.069Z,53.05
2023-02-05T07:25:04.718Z,53.12
2023-02-05T07:27:31.494Z,53.04
2023-02-05T07:29:58.023Z,52.90
2023-02-05T07:32:24.544Z,52.92
2023-02-05T07:34:51.140Z,53.03
2023-02-05T07:37:18.190Z,53.04
2023-02-05T07:39:45.653Z,53.22
2023-02-05T07:42:12.276Z,53.31
2023-02-05T07:44:38.842Z,53.13
2023-02-05T07:47:05.680Z,53.45
2023-02-05T07:49:32.252Z,53.66
2023-02-05T07:51:59.280Z,53.62
2023-02-05T07:54:25.902Z,53.59
2023-02-05T07:56:52.549Z,53.59
2023-02-05T07:59:19.070Z,53.62
2023-02-05T08:01:45.619Z,53.53
2023-02-05T08:04:12.248Z,53.68
2023-02-05T08:06:38.882Z,53.67
2023-02-05T08:09:05.428Z,53.65
2023-02-05T08:11:32.790Z,53.71
2023-02-05T08:14:00.691Z,53.63
2023-02-05T08:16:27.882Z,53.66
2023-02-05T08:18:54.452Z,53.61
2023-02-05T08:21:21.903Z,53.72
2023-02-05T08:23:49.534Z,53.71
2023-02-05T08:26:17.289Z,53.75
2023-02-05T08:28:44.044Z,53.76
2023-02-05T08:31:13.469Z,53.81
2023-02-05T08:33:40.244Z,53.76
2023-02-05T08:36:07.489Z,53.80
2023-02-05T08:38:34.151Z,53.74
2023-02-05T08:41:13.595Z,53.82
2023-02-05T08:43:50.262Z,53.72
2023-02-05T08:46:19.767Z,53.77
2023-02-05T08:48:54.430Z,53.77
2023-02-05T08:51:23.010Z,53.68
2023-02-05T08:53:49.937Z,53.74
2023-02-05T08:56:19.231Z,53.74
2023-02-05T08:58:47.264Z,53.73
2023-02-05T09:01:16.954Z,53.87
2023-02-05T09:03:44.777Z,53.94
2023-02-05T09:06:14.910Z,53.92
2023-02-05T09:08:42.053Z,53.81
2023-02-05T09:11:09.075Z,53.85
2023-02-05T09:13:36.319Z,53.94
2023-02-05T09:16:03.486Z,54.08
2023-02-05T09:18:30.298Z,54.09
2023-02-05T09:20:57.053Z,53.86
2023-02-05T09:23:24.143Z,53.92
2023-02-05T09:25:50.680Z,53.94
2023-02-05T09:28:17.925Z,53.76
2023-02-05T09:30:46.279Z,53.79
2023-02-05T09:33:14.282Z,53.84
2023-02-05T09:35:41.961Z,53.87
2023-02-05T09:38:09.306Z,54.03
2023-02-05T09:41:11.935Z,53.74
2023-02-05T09:44:03.328Z,53.89
2023-02-05T09:46:39.297Z,54.12
2023-02-05T09:49:17.981Z,53.98
2023-02-05T09:51:49.614Z,53.87
2023-02-05T09:54:24.485Z,53.76
2023-02-05T09:56:53.324Z,53.86
2023-02-05T09:59:24.057Z,53.79
2023-02-05T10:01:53.583Z,53.68
2023-02-05T10:04:21.404Z,53.50
2023-02-05T10:07:10.664Z,53.38
2023-02-05T10:09:44.830Z,53.50
2023-02-05T10:12:11.398Z,53.54
2023-02-05T10:15:19.726Z,53.54
2023-02-05T10:18:14.907Z,53.38
2023-02-05T10:21:07.036Z,53.46
2023-02-05T10:23:48.650Z,53.55
2023-02-05T10:26:19.742Z,53.88
2023-02-05T10:29:01.418Z,53.84
2023-02-05T10:31:39.335Z,54.04
2023-02-05T10:34:19.661Z,53.88
2023-02-05T10:36:52.445Z,54.19
2023-02-05T10:39:25.314Z,53.94
2023-02-05T10:42:27.571Z,53.82
2023-02-05T10:45:04.985Z,54.24
2023-02-05T10:47:44.886Z,54.11
2023-02-05T10:50:23.148Z,54.25
2023-02-05T10:52:49.728Z,54.30
2023-02-05T10:55:16.445Z,54.16
2023-02-05T10:57:43.021Z,54.31
2023-02-05T11:00:22.071Z,54.40
2023-02-05T11:02:55.968Z,54.16
2023-02-05T11:05:30.586Z,54.04
2023-02-05T11:07:58.524Z,54.20
2023-02-05T11:10:28.866Z,54.27
2023-02-05T11:13:01.191Z,54.40
2023-02-05T11:15:33.450Z,54.35
2023-02-05T11:18:03.416Z,54.53
2023-02-05T11:20:35.151Z,54.45
2023-02-05T11:23:23.802Z,54.87
2023-02-05T11:25:58.946Z,54.75
2023-02-05T11:28:36.717Z,54.42
2023-02-05T11:31:28.114Z,54.54
2023-02-05T11:34:15.874Z,54.72
2023-02-05T11:36:52.733Z,54.48
2023-02-05T11:39:34.080Z,54.73
2023-02-05T11:42:16.586Z,54.82
2023-02-05T11:44:50.552Z,54.46
2023-02-05T11:47:30.681Z,54.92
2023-02-05T11:49:59.347Z,54.63
2023-02-05T11:52:29.764Z,54.61
2023-02-05T11:54:57.245Z,54.24
2023-02-05T11:57:38.926Z,54.05
2023-02-05T12:00:08.514Z,54.33
2023-02-05T12:02:37.678Z,54.58
2023-02-05T12:05:13.489Z,54.30
2023-02-05T12:07:58.503Z,54.24
2023-02-05T12:10:48.519Z,54.21
2023-02-05T12:13:27.139Z,54.23
2023-02-05T12:16:16.004Z,54.24
2023-02-05T12:19:00.753Z,54.25
2023-02-05T12:21:46.019Z,54.20
2023-02-05T12:24:27.016Z,54.36
2023-02-05T12:27:04.722Z,54.43
2023-02-05T12:30:08.556Z,54.52
2023-02-05T12:32:56.940Z,54.34
2023-02-05T12:35:40.823Z,54.46
2023-02-05T12:38:52.344Z,54.33
2023-02-05T12:41:21.715Z,54.50
2023-02-05T12:43:51.217Z,54.50
2023-02-05T12:46:42.849Z,54.30
2023-02-05T12:49:21.274Z,54.56
2023-02-05T12:51:56.998Z,54.41
2023-02-05T12:54:29.582Z,54.52
2023-02-05T12:57:01.791Z,54.60
2023-02-05T12:59:33.646Z,54.53
2023-02-05T13:02:17.635Z,54.60
2023-02-05T13:05:19.266Z,54.56
2023-02-05T13:07:53.460Z,54.35
2023-02-05T13:10:34.150Z,54.25
2023-02-05T13:13:05.659Z,54.52
2023-02-05T13:15:42.913Z,54.63
2023-02-05T13:18:27.545Z,54.76
2023-02-05T13:21:17.345Z,54.67
2023-02-05T13:24:04.097Z,54.53
2023-02-05T13:26:56.809Z,54.83
2023-02-05T13:29:27.233Z,54.80
2023-02-05T13:32:10.666Z,54.71
2023-02-05T13:34:42.264Z,54.52
2023-02-05T13:37:29.094Z,54.35
2023-02-05T13:40:01.836Z,54.71
2023-02-05T13:42:58.526Z,54.17
2023-02-05T13:45:37.576Z,54.28
2023-02-05T13:48:23.063Z,54.53
2023-02-05T13:51:17.435Z,54.85
2023-02-05T13:54:05.609Z,54.54
2023-02-05T13:56:54.513Z,54.00
2023-02-05T13:59:27.718Z,54.61
2023-02-05T14:02:00.287Z,54.40
2023-02-05T14:04:36.675Z,54.22
2023-02-05T14:07:08.511Z,54.53
2023-02-05T14:09:39.284Z,54.32
2023-02-05T14:12:10.346Z,54.36
2023-02-05T14:14:41.871Z,54.37
2023-02-05T14:17:34.615Z,54.46
2023-02-05T14:20:05.408Z,54.34
2023-02-05T14:22:34.851Z,54.30
2023-02-05T14:25:01.915Z,54.31
2023-02-05T14:27:37.831Z,54.37
2023-02-05T14:30:30.252Z,54.06
2023-02-05T14:33:02.610Z,54.22
2023-02-05T14:35:38.712Z,54.22
2023-02-05T14:38:32.500Z,53.99
2023-02-05T14:41:16.471Z,53.93
2023-02-05T14:43:57.310Z,54.08
2023-02-05T14:46:37.646Z,53.94
2023-02-05T14:49:07.028Z,54.04
2023-02-05T14:51:40.588Z,54.01
2023-02-05T14:54:23.836Z,54.01
2023-02-05T14:56:54.191Z,53.89
2023-02-05T14:59:55.464Z,53.83
2023-02-05T15:02:50.022Z,53.90
2023-02-05T15:05:29.317Z,54.15
2023-02-05T15:08:09.149Z,53.89
2023-02-05T15:10:46.413Z,53.71
2023-02-05T15:13:16.520Z,53.83
2023-02-05T15:16:11.861Z,53.65
2023-02-05T15:18:44.830Z,53.58
2023-02-05T15:21:16.429Z,54.21
2023-02-05T15:23:48.327Z,53.85
2023-02-05T15:26:44.921Z,53.72
2023-02-05T15:29:23.651Z,53.79
2023-02-05T15:31:54.806Z,53.67
2023-02-05T15:34:47.671Z,54.00
2023-02-05T15:37:35.317Z,53.77
2023-02-05T15:40:18.961Z,53.65
2023-02-05T15:42:50.078Z,53.57
2023-02-05T15:45:40.325Z,53.75
2023-02-05T15:48:09.775Z,54.03
2023-02-05T15:51:02.269Z,53.91
2023-02-05T15:53:36.586Z,54.02
2023-02-05T15:56:16.271Z,54.03
2023-02-05T15:58:49.601Z,54.14
2023-02-05T16:01:47.958Z,54.14
2023-02-05T16:04:30.177Z,54.48
2023-02-05T16:06:57.436Z,54.63
2023-02-05T16:09:27.935Z,54.91
2023-02-05T16:11:55.687Z,54.67
2023-02-05T16:14:25.140Z,54.79
2023-02-05T16:17:07.490Z,54.61
2023-02-05T16:19:48.168Z,54.38
2023-02-05T16:22:25.612Z,54.60
2023-02-05T16:24:57.759Z,54.56
2023-02-05T16:27:40.780Z,54.57
2023-02-05T16:30:17.165Z,54.39
2023-02-05T16:32:43.878Z,54.46
2023-02-05T16:35:31.932Z,54.40
2023-02-05T16:37:58.683Z,54.24
2023-02-05T16:40:40.223Z,54.27
2023-02-05T16:43:21.163Z,54.22
2023-02-05T16:46:06.585Z,54.16
2023-02-05T16:48:49.860Z,54.09
2023-02-05T16:51:25.643Z,54.24
2023-02-05T16:53:52.116Z,54.18
2023-02-05T16:56:26.942Z,54.20
2023-02-05T16:58:56.816Z,54.26
2023-02-05T17:01:45.930Z,54.08
2023-02-05T17:04:34.505Z,54.34
2023-02-05T17:07:03.416Z,55.05
2023-02-05T17:09:35.917Z,54.98
2023-02-05T17:12:31.422Z,54.94
2023-02-05T17:15:00.111Z,54.74
2023-02-05T17:17:27.369Z,54.71
2023-02-05T17:20:17.777Z,54.95
2023-02-05T17:23:08.612Z,54.64
2023-02-05T17:25:54.567Z,54.46
2023-02-05T17:28:25.559Z,54.85
2023-02-05T17:30:54.894Z,54.52
2023-02-05T17:33:25.489Z,54.42
2023-02-05T17:35:52.280Z,54.61
2023-02-05T17:38:20.544Z,54.71
2023-02-05T17:40:47.494Z,54.66
2023-02-05T17:43:14.095Z,54.78
2023-02-05T17:45:41.681Z,54.61
2023-02-05T17:48:10.009Z,54.61
2023-02-05T17:50:37.602Z,54.91
2023-02-05T17:53:04.513Z,54.66
2023-02-05T17:55:31.272Z,54.61
2023-02-05T17:57:57.923Z,54.93
2023-02-05T18:00:27.469Z,55.13
2023-02-05T18:02:54.739Z,55.45
2023-02-05T18:05:22.903Z,55.20
2023-02-05T18:07:52.041Z,55.41
2023-02-05T18:10:25.821Z,55.11
2023-02-05T18:12:54.173Z,55.08
2023-02-05T18:15:23.615Z,55.22
2023-02-05T18:17:50.817Z,55.46
2023-02-05T18:20:20.826Z,55.52
2023-02-05T18:22:48.117Z,55.68
2023-02-05T18:25:15.226Z,55.72
2023-02-05T18:27:42.063Z,55.47
2023-02-05T18:30:09.363Z,55.54
2023-02-05T18:32:36.088Z,55.22
2023-02-05T18:35:03.204Z,55.50
2023-02-05T18:37:29.902Z,55.32
2023-02-05T18:39:57.018Z,55.18
2023-02-05T18:42:23.587Z,55.50
2023-02-05T18:44:50.136Z,55.36
2023-02-05T18:47:16.663Z,55.31
2023-02-05T18:49:43.227Z,55.38
2023-02-05T18:52:11.893Z,55.01
2023-02-05T18:54:38.438Z,55.41
2023-02-05T18:57:05.228Z,55.35
2023-02-05T18:59:32.547Z,55.28
2023-02-05T19:01:59.112Z,55.18
2023-02-05T19:04:27.955Z,55.23
2023-02-05T19:06:54.891Z,55.45
2023-02-05T19:09:23.539Z,55.23
2023-02-05T19:11:51.343Z,55.42
2023-02-05T19:14:19.511Z,55.49
2023-02-05T19:16:47.927Z,55.24
2023-02-05T19:19:17.354Z,55.30
2023-02-05T19:21:45.025Z,55.33
2023-02-05T19:24:13.959Z,55.42
2023-02-05T19:26:45.339Z,55.59
2023-02-05T19:29:16.808Z,55.34
2023-02-05T19:31:45.495Z,55.23
2023-02-05T19:34:12.526Z,54.95
2023-02-05T19:36:40.052Z,55.26
2023-02-05T19:39:08.862Z,55.62
2023-02-05T19:41:36.427Z,55.54
2023-02-05T19:44:06.051Z,55.51
2023-02-05T19:46:37.597Z,55.56
2023-02-05T19:49:14.937Z,55.77
2023-02-05T19:51:44.998Z,55.61
2023-02-05T19:54:11.999Z,55.48
2023-02-05T19:56:39.113Z,55.26
2023-02-05T19:59:09.111Z,55.40
2023-02-05T20:01:39.334Z,55.31
2023-02-05T20:04:07.860Z,55.35
2023-02-05T20:06:35.037Z,55.43
2023-02-05T20:09:03.384Z,55.14
2023-02-05T20:11:30.673Z,55.34
2023-02-05T20:14:00.869Z,55.30
2023-02-05T20:16:28.057Z,55.40
2023-02-05T20:18:57.899Z,55.20
2023-02-05T20:21:26.674Z,55.23
2023-02-05T20:23:54.991Z,55.25
2023-02-05T20:26:22.354Z,55.06
2023-02-05T20:29:12.439Z,55.27
2023-02-05T20:31:43.060Z,55.03
2023-02-05T20:34:25.748Z,55.00
2023-02-05T20:36:54.713Z,54.99
2023-02-05T20:39:22.986Z,55.16
2023-02-05T20:41:51.564Z,55.37
2023-02-05T20:44:19.028Z,55.06
2023-02-05T20:46:45.993Z,55.39
2023-02-05T20:49:13.504Z,55.35
2023-02-05T20:51:40.362Z,55.00
2023-02-05T20:54:07.607Z,54.82
2023-02-05T20:56:35.380Z,55.24
2023-02-05T20:59:05.088Z,55.26
2023-02-05T21:01:33.364Z,54.90
2023-02-05T21:04:03.852Z,54.84
2023-02-05T21:06:33.958Z,55.23
2023-02-05T21:09:02.663Z,55.04
2023-02-05T21:11:30.047Z,55.03
2023-02-05T21:13:58.684Z,54.90
2023-02-05T21:16:27.106Z,54.79
2023-02-05T21:18:54.685Z,55.21
2023-02-05T21:21:24.115Z,55.04
2023-02-05T21:23:59.133Z,54.72
2023-02-05T21:26:34.818Z,54.82
2023-02-05T21:29:08.328Z,54.97
2023-02-05T21:31:39.389Z,55.09
2023-02-05T21:34:09.104Z,54.71
2023-02-05T21:36:35.782Z,54.85
2023-02-05T21:39:02.992Z,54.91
2023-02-05T21:41:30.280Z,54.77
2023-02-05T21:44:00.035Z,54.97
2023-02-05T21:46:29.381Z,54.75
2023-02-05T21:48:57.627Z,54.88
2023-02-05T21:51:26.655Z,54.75
2023-02-05T21:53:58.916Z,54.81
2023-02-05T21:56:31.871Z,54.76
2023-02-05T21:58:58.946Z,54.85
2023-02-05T22:01:28.581Z,54.80
2023-02-05T22:03:57.643Z,54.62
2023-02-05T22:06:26.760Z,54.59
2023-02-05T22:08:54.010Z,55.06
2023-02-05T22:11:22.190Z,55.02
2023-02-05T22:13:51.594Z,54.94
2023-02-05T22:16:22.112Z,54.94
2023-02-05T22:18:49.940Z,54.86
2023-02-05T22:21:28.338Z,55.64
2023-02-05T22:23:57.138Z,54.63
2023-02-05T22:26:29.420Z,54.54
2023-02-05T22:28:57.897Z,54.46
2023-02-05T22:31:24.684Z,54.43
2023-02-05T22:33:51.556Z,54.25
2023-02-05T22:36:22.790Z,54.16
2023-02-05T22:38:51.114Z,54.16
2023-02-05T22:41:26.405Z,54.06
2023-02-05T22:43:57.386Z,54.08
2023-02-05T22:46:26.656Z,54.10
2023-02-05T22:48:55.018Z,54.10
2023-02-05T22:51:28.152Z,54.02
2023-02-05T22:53:55.831Z,53.90
2023-02-05T22:56:22.929Z,53.90
2023-02-05T22:58:50.474Z,53.78
2023-02-05T23:01:21.499Z,53.56
2023-02-05T23:03:50.734Z,53.85
2023-02-05T23:06:24.827Z,53.64
2023-02-05T23:08:59.721Z,53.76
2023-02-05T23:11:28.287Z,53.45
2023-02-05T23:13:56.401Z,53.37
2023-02-05T23:16:25.504Z,53.21
2023-02-05T23:18:55.949Z,53.49
2023-02-05T23:21:25.653Z,53.25
2023-02-05T23:23:52.725Z,53.39
2023-02-05T23:26:25.560Z,53.40
2023-02-05T23:28:53.915Z,53.34
2023-02-05T23:31:21.818Z,53.31
2023-02-05T23:33:48.626Z,53.24
2023-02-05T23:36:15.734Z,53.25
2023-02-05T23:38:42.918Z,53.29
2023-02-05T23:41:09.862Z,53.20
2023-02-05T23:43:37.911Z,53.24
2023-02-05T23:46:06.687Z,53.20
2023-02-05T23:48:34.071Z,53.15
2023-02-05T23:51:01.124Z,53.26
2023-02-05T23:53:28.178Z,53.18
2023-02-05T23:55:54.741Z,53.29
2023-02-05T23:58:24.001Z,53.02
